Time;durP1;ratioP1;P1;durP2;ratioP2;P2;SDS_P1;SDS_P2;PMS_P1;PMS_P2;Temp;Humidity;BMP_temperature;BMP_pressure;BME280_temperature;BME280_humidity;BME280_pressure;Samples;Min_cycle;Max_cycle;Signal;HPM_P1;HPM_P2
2023/07/15 00:01:42;;;;;;;7.03;3.50;;;;;;;21.40;100.00;100418.62;5548826;32;33875;-60
2023/07/15 00:04:45;;;;;;;6.45;3.70;;;;;;;21.34;100.00;100414.22;5549021;32;34860;-60
2023/07/15 00:07:48;;;;;;;8.23;4.25;;;;;;;21.28;100.00;100414.31;5548841;32;33750;-60
2023/07/15 00:10:52;;;;;;;7.75;4.07;;;;;;;21.17;100.00;100406.00;5548607;32;34756;-60
2023/07/15 00:13:56;;;;;;;7.72;4.20;;;;;;;21.24;100.00;100416.69;5548653;32;33891;-60
2023/07/15 00:16:59;;;;;;;6.60;4.40;;;;;;;21.22;100.00;100414.22;5548606;32;34676;-60
2023/07/15 00:20:07;;;;;;;7.43;4.35;;;;;;;21.29;100.00;100414.09;5548581;32;33691;-60
2023/07/15 00:23:26;;;;;;;7.60;4.65;;;;;;;21.27;100.00;100412.69;5534824;32;34829;-60
2023/07/15 00:26:34;;;;;;;5.20;4.20;;;;;;;21.28;100.00;100422.41;5534600;32;34459;-60
2023/07/15 00:29:37;;;;;;;6.00;4.50;;;;;;;21.20;100.00;100418.22;5534966;32;33754;-60
2023/07/15 00:32:45;;;;;;;8.48;4.72;;;;;;;21.08;100.00;100417.34;5548005;32;33781;-60
2023/07/15 00:35:49;;;;;;;6.78;4.78;;;;;;;21.01;100.00;100422.06;5548507;32;34666;-61
2023/07/15 00:38:53;;;;;;;8.02;4.50;;;;;;;21.01;100.00;100414.78;5548298;32;34442;-60
2023/07/15 00:42:02;;;;;;;7.93;5.00;;;;;;;20.98;100.00;100420.66;5548130;32;34393;-60
2023/07/15 00:45:06;;;;;;;6.53;4.27;;;;;;;20.87;100.00;100407.16;5534405;32;34034;-60
2023/07/15 00:48:19;;;;;;;6.55;4.22;;;;;;;20.74;100.00;100408.22;5548773;32;33587;-60
2023/07/15 00:51:24;;;;;;;7.35;4.05;;;;;;;20.67;100.00;100405.63;5548446;32;34059;-60
2023/07/15 00:54:31;;;;;;;5.57;3.80;;;;;;;20.91;100.00;100406.47;5522132;32;33877;-61
2023/07/15 00:57:34;;;;;;;8.85;3.95;;;;;;;20.81;100.00;100398.97;5548092;32;34054;-60
2023/07/15 01:00:37;;;;;;;5.60;3.92;;;;;;;20.76;100.00;100400.72;5548188;32;33860;-60
2023/07/15 01:03:40;;;;;;;6.22;3.83;;;;;;;20.73;100.00;100403.88;5548327;32;33706;-60
2023/07/15 01:06:47;;;;;;;6.35;4.00;;;;;;;20.65;100.00;100399.66;5548116;32;33930;-60
2023/07/15 01:09:51;;;;;;;8.20;4.25;;;;;;;20.59;100.00;100400.56;5548185;32;33864;-60
2023/07/15 01:12:54;;;;;;;6.68;4.25;;;;;;;20.59;100.00;100397.06;5534598;32;33663;-60
2023/07/15 01:15:58;;;;;;;5.35;4.20;;;;;;;20.54;100.00;100394.22;5548114;32;33973;-60
2023/07/15 01:19:02;;;;;;;6.00;4.22;;;;;;;20.49;100.00;100394.94;5548073;32;33444;-60
2023/07/15 01:22:07;;;;;;;8.55;4.10;;;;;;;20.54;100.00;100397.75;5548094;32;33426;-60
2023/07/15 01:25:10;;;;;;;8.43;4.30;;;;;;;20.47;100.00;100399.75;5534379;32;34466;-61
2023/07/15 01:28:13;;;;;;;9.25;4.25;;;;;;;20.41;100.00;100381.81;5547781;32;33840;-61
2023/07/15 01:31:19;;;;;;;8.77;3.97;;;;;;;20.30;100.00;100391.50;5548308;32;34289;-61
2023/07/15 01:34:22;;;;;;;9.45;4.45;;;;;;;20.15;100.00;100388.38;5548104;32;34035;-60
2023/07/15 01:37:25;;;;;;;7.28;4.25;;;;;;;20.04;100.00;100388.38;5548089;32;33597;-60
2023/07/15 01:40:28;;;;;;;7.93;4.35;;;;;;;19.98;100.00;100394.66;5534218;32;34790;-60
2023/07/15 01:43:33;;;;;;;7.05;4.20;;;;;;;19.95;100.00;100398.62;5547606;32;33888;-61
2023/07/15 01:46:39;;;;;;;6.47;4.20;;;;;;;19.95;100.00;100402.13;5547339;32;33850;-61
2023/07/15 01:49:43;;;;;;;6.78;3.97;;;;;;;19.99;100.00;100409.78;5547882;32;34764;-61
2023/07/15 01:52:46;;;;;;;5.68;4.05;;;;;;;19.99;100.00;100409.78;5547809;32;34596;-60
2023/07/15 01:55:49;;;;;;;9.15;4.60;;;;;;;19.89;100.00;100404.94;5548085;32;35076;-60
2023/07/15 01:58:52;;;;;;;8.23;3.78;;;;;;;19.90;100.00;100414.62;5548093;32;33949;-61
2023/07/15 02:01:58;;;;;;;5.28;4.25;;;;;;;19.95;100.00;100406.69;5547574;32;33847;-61
2023/07/15 02:05:02;;;;;;;6.25;4.30;;;;;;;19.87;100.00;100413.22;5534167;32;34095;-61
2023/07/15 02:08:05;;;;;;;5.68;4.30;;;;;;;19.94;100.00;100397.00;5547659;32;34494;-60
2023/07/15 02:11:09;;;;;;;6.43;4.22;;;;;;;19.89;100.00;100405.75;5534222;32;33969;-61
2023/07/15 02:14:11;;;;;;;5.85;4.12;;;;;;;19.78;100.00;100413.78;5547653;32;33850;-61
2023/07/15 02:17:17;;;;;;;6.35;4.12;;;;;;;19.75;100.00;100411.53;5534072;32;34273;-61
2023/07/15 02:20:21;;;;;;;6.25;4.00;;;;;;;19.67;100.00;100409.13;5533977;32;34042;-61
2023/07/15 02:23:24;;;;;;;9.20;4.32;;;;;;;19.62;100.00;100406.31;5547538;32;33811;-61
2023/07/15 02:26:27;;;;;;;7.12;4.72;;;;;;;19.48;100.00;100403.78;5533824;32;34047;-62
2023/07/15 02:29:33;;;;;;;8.48;4.53;;;;;;;19.59;100.00;100399.53;5547551;32;33758;-61
2023/07/15 02:32:39;;;;;;;7.45;4.65;;;;;;;19.53;100.00;100411.19;5547896;32;34707;-61
2023/07/15 02:35:43;;;;;;;10.15;4.72;;;;;;;19.53;100.00;100411.19;5534266;32;34418;-61
2023/07/15 02:38:46;;;;;;;8.90;4.40;;;;;;;19.54;100.00;100415.53;5547424;32;33677;-61
2023/07/15 02:41:50;;;;;;;5.55;4.20;;;;;;;19.57;100.00;100416.91;5547392;32;33779;-61
2023/07/15 02:44:53;;;;;;;7.50;4.35;;;;;;;19.66;100.00;100416.37;5533876;32;33864;-61
2023/07/15 02:47:56;;;;;;;9.40;4.30;;;;;;;19.57;100.00;100414.22;5547322;32;33421;-61
2023/07/15 02:50:59;;;;;;;9.27;4.20;;;;;;;19.57;100.00;100414.22;5547260;32;33706;-62
2023/07/15 02:54:02;;;;;;;5.95;4.12;;;;;;;19.50;100.00;100417.03;5547153;32;33896;-61
2023/07/15 02:57:06;;;;;;;6.95;4.43;;;;;;;19.53;100.00;100420.06;5532931;32;33824;-61
2023/07/15 03:00:14;;;;;;;9.48;4.43;;;;;;;19.50;100.00;100431.31;5533258;32;33333;-62
2023/07/15 03:03:18;;;;;;;6.25;4.15;;;;;;;19.38;100.00;100424.97;5531626;32;34477;-61
2023/07/15 03:06:21;;;;;;;7.65;4.22;;;;;;;19.25;100.00;100422.44;5546922;32;33881;-61
2023/07/15 03:09:23;;;;;;;7.43;4.60;;;;;;;19.18;100.00;100423.53;5533286;32;33613;-61
2023/07/15 03:12:26;;;;;;;6.45;4.60;;;;;;;19.22;100.00;100424.75;5533105;32;33838;-61
2023/07/15 03:15:30;;;;;;;9.70;4.82;;;;;;;19.22;100.00;100425.56;5546805;32;34446;-61
2023/07/15 03:18:32;;;;;;;7.50;4.43;;;;;;;19.25;100.00;100424.31;5532953;32;34461;-62
2023/07/15 03:21:38;;;;;;;7.12;4.65;;;;;;;19.22;100.00;100428.25;5547087;32;34565;-61
2023/07/15 03:24:41;;;;;;;11.02;4.62;;;;;;;19.25;100.00;100421.59;5533003;32;34236;-61
2023/07/15 03:27:44;;;;;;;8.55;4.30;;;;;;;19.33;100.00;100422.12;5546519;32;34616;-62
2023/07/15 03:30:48;;;;;;;9.40;4.32;;;;;;;19.34;100.00;100428.34;5532804;32;34014;-61
2023/07/15 03:33:53;;;;;;;5.30;4.72;;;;;;;19.38;100.00;100430.34;5546543;32;34241;-62
2023/07/15 03:36:56;;;;;;;6.40;4.22;;;;;;;19.51;100.00;100421.34;5546363;32;33885;-61
2023/07/15 03:40:10;;;;;;;6.03;4.28;;;;;;;19.42;100.00;100433.41;5546367;32;33542;-61
2023/07/15 03:43:13;;;;;;;6.90;3.97;;;;;;;19.44;100.00;100425.97;5546107;32;33251;-61
2023/07/15 03:46:17;;;;;;;5.82;4.12;;;;;;;19.52;100.00;100439.94;5546177;32;34200;-61
2023/07/15 03:49:20;;;;;;;5.68;3.90;;;;;;;19.61;100.00;100428.88;5546127;32;32738;-61
2023/07/15 03:52:23;;;;;;;7.62;4.25;;;;;;;19.58;100.00;100438.25;5545991;32;35193;-62
2023/07/15 03:55:26;;;;;;;5.00;4.00;;;;;;;19.76;100.00;100437.37;5546020;32;33978;-61
2023/07/15 03:58:30;;;;;;;8.60;3.85;;;;;;;19.75;100.00;100433.87;5532226;32;32652;-61
2023/07/15 04:01:38;;;;;;;10.98;4.57;;;;;;;19.81;100.00;100437.53;5545755;32;34335;-61
2023/07/15 04:04:41;;;;;;;4.78;4.00;;;;;;;19.88;100.00;100438.28;5532360;32;33658;-61
2023/07/15 04:07:44;;;;;;;7.78;3.92;;;;;;;19.90;100.00;100441.56;5546267;32;34570;-61
2023/07/15 04:10:47;;;;;;;7.80;3.80;;;;;;;19.89;100.00;100439.94;5535102;32;32462;-62
2023/07/15 04:13:50;;;;;;;4.95;3.80;;;;;;;19.92;100.00;100429.53;5548793;32;33243;-61
2023/07/15 04:16:57;;;;;;;8.27;4.20;;;;;;;19.99;100.00;100434.84;5548640;32;34405;-61
2023/07/15 04:19:59;;;;;;;7.87;4.80;;;;;;;20.01;100.00;100423.81;5548827;32;34800;-62
2023/07/15 04:23:02;;;;;;;7.95;4.35;;;;;;;20.21;100.00;100427.06;5535053;32;33525;-61
2023/07/15 04:26:08;;;;;;;9.15;4.10;;;;;;;20.14;100.00;100418.25;5548610;32;34022;-61
2023/07/15 04:29:11;;;;;;;8.60;4.28;;;;;;;20.17;100.00;100418.62;5535140;32;33786;-61
2023/07/15 04:32:14;;;;;;;7.40;4.30;;;;;;;20.31;100.00;100419.28;5548505;32;34350;-61
2023/07/15 04:35:17;;;;;;;6.07;4.12;;;;;;;20.30;100.00;100421.13;5534851;32;34137;-61
2023/07/15 04:38:22;;;;;;;7.53;4.18;;;;;;;20.34;100.00;100425.00;5548540;32;34336;-61
2023/07/15 04:41:25;;;;;;;7.97;4.15;;;;;;;20.47;100.00;100433.97;5548283;32;33879;-61
2023/07/15 04:44:28;;;;;;;4.97;4.05;;;;;;;20.52;100.00;100445.69;5534600;32;34124;-61
2023/07/15 04:47:32;;;;;;;6.47;4.43;;;;;;;20.60;100.00;100439.12;5548469;32;33589;-61
2023/07/15 04:50:36;;;;;;;6.03;4.50;;;;;;;20.68;100.00;100436.09;5548472;32;34501;-61
2023/07/15 04:53:43;;;;;;;19.90;4.43;;;;;;;20.76;100.00;100446.56;5548664;32;33782;-61
2023/07/15 04:56:46;;;;;;;7.45;4.47;;;;;;;20.95;100.00;100436.47;5548419;32;33600;-61
2023/07/15 04:59:54;;;;;;;7.62;4.85;;;;;;;20.98;100.00;100444.09;5548340;32;33984;-62
2023/07/15 05:02:57;;;;;;;5.45;4.35;;;;;;;21.02;100.00;100438.00;5548129;32;34132;-61
2023/07/15 05:06:00;;;;;;;8.30;4.55;;;;;;;21.06;100.00;100444.56;5534423;32;33784;-61
2023/07/15 05:09:07;;;;;;;9.45;4.50;;;;;;;21.22;100.00;100443.06;5534585;32;33556;-61
2023/07/15 05:12:10;;;;;;;5.45;4.18;;;;;;;21.33;100.00;100454.91;5548182;32;35058;-61
2023/07/15 05:15:14;;;;;;;9.15;4.78;;;;;;;21.39;100.00;100454.81;5548137;32;33901;-62
2023/07/15 05:18:17;;;;;;;6.93;4.50;;;;;;;21.46;100.00;100451.97;5534250;32;34835;-61
2023/07/15 05:21:20;;;;;;;9.13;4.60;;;;;;;21.58;100.00;100460.87;5534355;32;34010;-62
2023/07/15 05:24:28;;;;;;;9.25;4.70;;;;;;;21.62;100.00;100459.34;5545051;32;33914;-62
2023/07/15 05:27:31;;;;;;;9.02;4.32;;;;;;;21.82;100.00;100462.47;5547753;32;34910;-62
2023/07/15 05:30:36;;;;;;;6.35;4.47;;;;;;;21.95;100.00;100461.38;5548068;32;33788;-62
2023/07/15 05:33:38;;;;;;;9.65;4.00;;;;;;;22.18;100.00;100474.78;5547761;32;33911;-61
2023/07/15 05:36:41;;;;;;;9.63;4.80;;;;;;;22.17;100.00;100467.78;5548023;32;34374;-62
2023/07/15 05:39:47;;;;;;;8.98;4.57;;;;;;;22.22;100.00;100478.66;5547569;32;33894;-62
2023/07/15 05:42:51;;;;;;;8.10;4.78;;;;;;;22.22;100.00;100475.94;5547268;32;34326;-62
2023/07/15 05:45:53;;;;;;;10.15;4.32;;;;;;;22.40;100.00;100477.66;5547653;32;34053;-61
2023/07/15 05:48:57;;;;;;;11.73;4.60;;;;;;;22.32;100.00;100484.25;5548042;32;33764;-62
2023/07/15 05:52:00;;;;;;;10.80;4.15;;;;;;;22.35;100.00;100480.25;5547886;32;34597;-61
2023/07/15 05:55:05;;;;;;;5.60;4.18;;;;;;;22.62;100.00;100483.16;5547819;32;34513;-61
2023/07/15 05:58:10;;;;;;;10.98;4.43;;;;;;;22.63;100.00;100482.09;5547884;32;33903;-61
2023/07/15 06:01:13;;;;;;;6.57;4.07;;;;;;;22.71;100.00;100479.00;5547674;32;34358;-61
2023/07/15 06:04:17;;;;;;;7.62;4.97;;;;;;;22.67;100.00;100484.06;5547269;32;35052;-62
2023/07/15 06:07:20;;;;;;;7.57;4.18;;;;;;;22.70;100.00;100488.19;5533754;32;34323;-61
2023/07/15 06:10:23;;;;;;;7.43;4.47;;;;;;;22.77;100.00;100491.56;5547690;32;33603;-61
2023/07/15 06:13:26;;;;;;;6.97;4.20;;;;;;;22.91;100.00;100485.59;5547154;32;34472;-61
2023/07/15 06:16:35;;;;;;;7.70;4.40;;;;;;;23.00;100.00;100491.41;5534319;32;33878;-62
2023/07/15 06:19:39;;;;;;;10.32;4.35;;;;;;;23.12;100.00;100494.03;5533667;32;33916;-62
2023/07/15 06:22:42;;;;;;;10.40;4.50;;;;;;;23.33;100.00;100491.37;5542060;32;34706;-61
2023/07/15 06:25:45;;;;;;;11.05;4.75;;;;;;;23.51;100.00;100487.59;5529619;32;34644;-61
2023/07/15 06:28:48;;;;;;;5.55;4.07;;;;;;;23.56;100.00;100490.38;5533661;32;34144;-61
2023/07/15 06:31:53;;;;;;;5.90;4.05;;;;;;;23.67;100.00;100492.13;5532688;32;33863;-61
2023/07/15 06:34:57;;;;;;;10.43;3.78;;;;;;;23.82;100.00;100492.34;5547133;32;34361;-61
2023/07/15 06:37:59;;;;;;;5.55;3.87;;;;;;;24.01;100.00;100487.41;5547269;32;33581;-61
2023/07/15 06:41:03;;;;;;;7.05;4.10;;;;;;;24.21;99.20;100490.41;5533702;32;34399;-61
2023/07/15 06:44:06;;;;;;;13.27;4.45;;;;;;;24.30;93.38;100496.22;5546995;32;34234;-61
2023/07/15 06:47:09;;;;;;;5.30;3.97;;;;;;;24.38;93.91;100501.16;5534001;32;33579;-61
2023/07/15 06:50:14;;;;;;;8.80;4.37;;;;;;;24.43;96.41;100498.50;5546892;32;33410;-62
2023/07/15 06:53:17;;;;;;;5.28;3.80;;;;;;;24.49;97.57;100497.47;5546740;32;33034;-61
2023/07/15 06:56:20;;;;;;;15.23;4.10;;;;;;;24.64;93.59;100500.31;5533523;32;33627;-62
2023/07/15 06:59:23;;;;;;;12.23;4.10;;;;;;;24.79;94.20;100496.91;5547018;32;33865;-61
2023/07/15 07:02:26;;;;;;;9.40;3.28;;;;;;;25.07;92.30;100504.81;5546967;32;33940;-61
2023/07/15 07:05:29;;;;;;;11.52;3.70;;;;;;;25.35;91.16;100500.09;5546903;32;33880;-61
2023/07/15 07:08:32;;;;;;;6.70;3.60;;;;;;;25.57;83.72;100500.78;5546895;32;34670;-61
2023/07/15 07:11:35;;;;;;;6.90;4.45;;;;;;;25.74;86.24;100501.44;5546765;32;34483;-61
2023/07/15 07:14:38;;;;;;;7.93;3.85;;;;;;;25.88;84.17;100504.50;5533362;32;33900;-62
2023/07/15 07:17:41;;;;;;;12.65;4.20;;;;;;;25.67;89.27;100500.03;5546913;32;33858;-62
2023/07/15 07:20:44;;;;;;;6.75;3.70;;;;;;;25.85;89.84;100496.88;5546610;32;33949;-61
2023/07/15 07:23:52;;;;;;;8.77;4.37;;;;;;;26.36;85.55;100493.25;5546702;32;33328;-62
2023/07/15 07:26:54;;;;;;;9.05;4.60;;;;;;;26.65;77.89;100490.84;5532752;32;33418;-62
2023/07/15 07:29:59;;;;;;;8.82;3.83;;;;;;;26.71;76.68;100492.50;5546364;32;33867;-62
2023/07/15 07:33:02;;;;;;;7.72;3.47;;;;;;;26.95;73.16;100492.78;5546231;32;34554;-62
2023/07/15 07:36:05;;;;;;;5.40;3.87;;;;;;;27.18;69.68;100503.12;5531985;32;34544;-61
2023/07/15 07:39:08;;;;;;;5.80;3.60;;;;;;;27.88;66.72;100500.53;5532624;32;33899;-62
2023/07/15 07:42:13;;;;;;;16.80;3.60;;;;;;;28.71;62.56;100497.87;5533259;32;34160;-62
2023/07/15 07:45:16;;;;;;;7.22;2.92;;;;;;;29.48;59.49;100502.41;5535087;32;33449;-62
2023/07/15 07:48:20;;;;;;;5.80;3.15;;;;;;;30.28;56.45;100504.44;5548753;32;34130;-62
2023/07/15 07:51:23;;;;;;;8.93;3.00;;;;;;;30.57;53.33;100492.28;5535001;32;33985;-62
2023/07/15 07:54:26;;;;;;;7.60;3.28;;;;;;;31.01;52.71;100501.97;5534804;32;33937;-62
2023/07/15 07:57:29;;;;;;;6.05;2.90;;;;;;;31.34;49.97;100497.28;5548777;32;34220;-62
2023/07/15 08:00:31;;;;;;;3.97;3.05;;;;;;;32.31;49.59;100500.53;5548834;32;34680;-62
2023/07/15 08:03:35;;;;;;;6.35;2.87;;;;;;;32.54;48.99;100500.56;5548587;32;34283;-62
2023/07/15 08:06:38;;;;;;;5.12;2.62;;;;;;;33.21;47.25;100493.16;5547951;32;34157;-62
2023/07/15 08:09:41;;;;;;;6.50;2.80;;;;;;;32.93;47.99;100486.97;5542428;32;33625;-62
2023/07/15 08:12:44;;;;;;;6.72;2.90;;;;;;;33.43;45.76;100484.03;5534862;32;33725;-63
2023/07/15 08:15:47;;;;;;;6.43;2.67;;;;;;;33.42;45.20;100474.16;5548349;32;33861;-63
2023/07/15 08:18:50;;;;;;;7.82;2.62;;;;;;;32.93;46.26;100483.41;5548778;32;33791;-63
2023/07/15 08:21:53;;;;;;;5.75;2.60;;;;;;;32.97;45.27;100482.47;5548378;32;33718;-63
2023/07/15 08:24:56;;;;;;;11.18;2.10;;;;;;;33.50;45.65;100482.44;5548240;32;33129;-63
2023/07/15 08:27:59;;;;;;;4.43;2.00;;;;;;;32.39;46.58;100477.00;5534527;32;33836;-63
2023/07/15 08:31:02;;;;;;;6.60;2.10;;;;;;;33.15;45.57;100480.66;5548145;32;33746;-62
2023/07/15 08:34:05;;;;;;;7.47;2.42;;;;;;;33.76;44.13;100482.56;5547835;32;33988;-62
2023/07/15 08:37:08;;;;;;;6.57;2.40;;;;;;;34.14;41.96;100480.03;5547967;32;34712;-63
2023/07/15 08:40:11;;;;;;;5.90;2.40;;;;;;;33.51;43.29;100480.50;5534337;32;33807;-63
2023/07/15 08:43:14;;;;;;;3.87;2.28;;;;;;;33.90;42.27;100480.47;5534340;32;34916;-61
2023/07/15 08:46:26;;;;;;;4.35;2.40;;;;;;;34.19;41.84;100485.41;5548244;32;33962;-63
2023/07/15 08:49:31;;;;;;;10.07;2.37;;;;;;;34.88;40.95;100483.47;5534597;32;34069;-63
2023/07/15 08:52:35;;;;;;;3.35;2.53;;;;;;;34.62;41.48;100479.91;5534681;32;33398;-62
2023/07/15 08:55:39;;;;;;;3.33;2.10;;;;;;;35.47;39.75;100478.13;5533854;32;34501;-62
2023/07/15 08:58:42;;;;;;;2.75;2.10;;;;;;;35.78;38.73;100491.63;5534207;32;33876;-62
2023/07/15 09:01:45;;;;;;;10.73;2.40;;;;;;;35.28;40.38;100484.06;5534341;32;34607;-62
2023/07/15 09:04:48;;;;;;;4.00;2.33;;;;;;;33.02;43.94;100484.28;5547761;32;33708;-63
2023/07/15 09:07:55;;;;;;;10.93;2.17;;;;;;;34.94;40.47;100470.34;5547728;32;32818;-63
2023/07/15 09:11:01;;;;;;;7.28;2.40;;;;;;;34.83;40.57;100482.84;5534384;32;33610;-63
2023/07/15 09:14:17;;;;;;;4.82;2.20;;;;;;;34.65;40.38;100482.03;5534009;32;34675;-62
2023/07/15 09:17:21;;;;;;;4.62;2.30;;;;;;;33.90;42.02;100483.25;5534246;32;34568;-63
2023/07/15 09:20:26;;;;;;;5.55;2.50;;;;;;;34.51;41.07;100480.56;5548005;32;33910;-63
2023/07/15 09:23:30;;;;;;;10.57;2.25;;;;;;;35.00;40.17;100496.59;5534515;32;33681;-62
2023/07/15 09:26:33;;;;;;;8.18;2.33;;;;;;;36.17;38.56;100494.00;5548029;32;33972;-62
2023/07/15 09:29:37;;;;;;;3.75;2.10;;;;;;;35.87;39.07;100489.66;5529366;32;34000;-63
2023/07/15 09:32:40;;;;;;;4.32;2.05;;;;;;;36.99;36.55;100499.78;5532322;32;34354;-63
2023/07/15 09:35:43;;;;;;;4.37;2.10;;;;;;;36.54;35.65;100497.78;5540906;32;33629;-64
2023/07/15 09:38:45;;;;;;;5.07;1.92;;;;;;;36.80;35.47;100500.31;5540400;32;33447;-62
2023/07/15 09:42:02;;;;;;;4.40;2.03;;;;;;;37.65;34.32;100500.53;5547991;32;34251;-64
2023/07/15 09:45:09;;;;;;;4.30;2.30;;;;;;;37.18;34.36;100500.09;5547599;32;32420;-63
2023/07/15 09:48:14;;;;;;;4.37;2.28;;;;;;;36.57;35.99;100491.56;5547459;32;33759;-63
2023/07/15 09:51:17;;;;;;;4.87;1.90;;;;;;;37.43;35.21;100485.16;5533895;32;34599;-62
2023/07/15 09:54:25;;;;;;;3.80;2.03;;;;;;;37.35;35.78;100483.31;5547706;32;33916;-63
2023/07/15 09:57:30;;;;;;;4.47;2.00;;;;;;;37.16;35.24;100485.81;5547891;32;33814;-62
2023/07/15 10:00:41;;;;;;;5.15;2.12;;;;;;;38.45;34.47;100475.72;5533893;32;34359;-65
2023/07/15 10:03:53;;;;;;;3.50;2.10;;;;;;;38.74;32.94;100476.53;5547591;32;34533;-62
2023/07/15 10:06:56;;;;;;;4.35;2.20;;;;;;;39.73;31.43;100471.59;5532859;32;32797;-63
2023/07/15 10:10:00;;;;;;;6.57;2.40;;;;;;;39.27;31.72;100467.66;5533692;32;35069;-63
2023/07/15 10:13:03;;;;;;;4.97;2.30;;;;;;;38.19;33.63;100467.84;5547534;32;32684;-63
2023/07/15 10:16:07;;;;;;;4.30;2.03;;;;;;;39.63;31.83;100471.34;5547941;32;34863;-62
2023/07/15 10:19:49;;;;;;;7.55;2.40;;;;;;;39.68;31.91;100457.19;5547560;32;33792;-61
2023/07/15 10:22:52;;;;;;;7.57;2.53;;;;;;;40.46;31.28;100462.53;5496075;32;34573;-65
2023/07/15 10:26:05;;;;;;;3.20;2.15;;;;;;;39.03;32.10;100456.72;5547477;32;34265;-63
2023/07/15 10:29:08;;;;;;;3.78;2.05;;;;;;;37.17;34.93;100451.47;5547236;32;34413;-63
2023/07/15 10:32:14;;;;;;;8.73;2.10;;;;;;;37.47;35.08;100451.25;5533602;32;33671;-63
2023/07/15 10:35:22;;;;;;;3.08;2.20;;;;;;;38.61;33.15;100448.06;5527986;32;33694;-63
2023/07/15 10:38:27;;;;;;;2.92;1.98;;;;;;;38.54;33.25;100448.66;5528048;32;34528;-63
2023/07/15 10:41:43;;;;;;;4.20;2.20;;;;;;;37.59;35.05;100438.25;5514230;32;34146;-62
2023/07/15 10:44:53;;;;;;;5.80;2.17;;;;;;;39.23;33.81;100452.91;5514204;32;34481;-63
2023/07/15 10:47:58;;;;;;;3.90;2.00;;;;;;;37.32;35.73;100453.56;5527807;32;33952;-63
2023/07/15 10:51:06;;;;;;;5.45;2.35;;;;;;;40.47;31.81;100461.38;5527854;32;34401;-62
2023/07/15 10:54:09;;;;;;;6.20;2.22;;;;;;;41.25;28.85;100462.81;5527871;32;34228;-63
2023/07/15 10:57:15;;;;;;;4.55;2.08;;;;;;;40.86;30.74;100453.00;5527999;32;33662;-63
2023/07/15 11:00:18;;;;;;;7.37;2.40;;;;;;;41.19;28.71;100450.41;5514099;32;34330;-62
2023/07/15 11:03:21;;;;;;;5.45;1.80;;;;;;;41.11;28.28;100452.25;5513797;32;33741;-62
2023/07/15 11:06:25;;;;;;;3.12;1.67;;;;;;;40.21;29.91;100453.66;5527658;32;33628;-63
2023/07/15 11:09:29;;;;;;;3.20;2.00;;;;;;;40.98;29.89;100436.09;5539820;32;34610;-63
2023/07/15 11:12:32;;;;;;;5.65;2.47;;;;;;;40.64;29.56;100433.09;5546436;32;33753;-64
2023/07/15 11:15:35;;;;;;;5.15;2.10;;;;;;;41.97;27.76;100429.38;5533018;32;33956;-64
2023/07/15 11:18:38;;;;;;;7.72;2.10;;;;;;;42.47;27.56;100428.00;5534895;32;33848;-63
2023/07/15 11:21:43;;;;;;;5.68;2.10;;;;;;;41.70;28.25;100424.97;5549020;32;33723;-63
2023/07/15 11:24:49;;;;;;;3.08;2.00;;;;;;;43.42;26.42;100430.13;5535462;32;33739;-63
2023/07/15 11:27:52;;;;;;;3.92;1.70;;;;;;;43.15;26.07;100421.13;5549144;32;34519;-63
2023/07/15 11:30:55;;;;;;;4.18;2.10;;;;;;;43.53;25.85;100422.63;5548924;32;34333;-63
2023/07/15 11:33:57;;;;;;;5.43;2.10;;;;;;;42.06;27.03;100416.75;5548991;32;33852;-63
2023/07/15 11:37:05;;;;;;;14.45;2.05;;;;;;;42.77;27.45;100411.19;5535025;32;34817;-62
2023/07/15 11:40:14;;;;;;;8.05;2.55;;;;;;;43.52;25.96;100416.25;5535250;32;32560;-64
2023/07/15 11:43:19;;;;;;;3.05;1.90;;;;;;;42.96;25.74;100410.16;5548865;32;33950;-64
2023/07/15 11:46:22;;;;;;;4.28;2.20;;;;;;;40.80;28.12;100407.97;5548808;32;34526;-63
2023/07/15 11:49:25;;;;;;;4.22;2.22;;;;;;;42.23;27.28;100408.97;5548854;32;33771;-62
2023/07/15 11:52:28;;;;;;;3.12;1.80;;;;;;;42.88;25.94;100404.53;5534964;32;33408;-62
2023/07/15 11:55:31;;;;;;;4.32;2.20;;;;;;;43.68;24.71;100396.37;5548814;32;33400;-63
2023/07/15 11:58:42;;;;;;;4.85;2.17;;;;;;;43.60;25.38;100392.75;5548809;32;34966;-62
2023/07/15 12:01:45;;;;;;;3.42;2.20;;;;;;;44.20;25.55;100388.66;5548847;32;33191;-62
2023/07/15 12:04:48;;;;;;;8.18;2.30;;;;;;;42.14;26.45;100392.53;5548475;32;33594;-63
2023/07/15 12:07:52;;;;;;;3.42;2.20;;;;;;;45.35;23.19;100389.22;5534823;32;34375;-62
2023/07/15 12:10:57;;;;;;;7.75;2.47;;;;;;;45.92;22.58;100392.69;5548601;32;34310;-64
2023/07/15 12:14:01;;;;;;;4.72;2.05;;;;;;;46.49;21.80;100386.78;5535097;32;34692;-64
2023/07/15 12:17:04;;;;;;;6.75;2.05;;;;;;;45.72;22.44;100392.34;5548883;32;33627;-62
2023/07/15 12:20:08;;;;;;;3.22;2.30;;;;;;;45.25;23.27;100382.44;5548281;32;33545;-62
2023/07/15 12:23:11;;;;;;;3.58;2.15;;;;;;;44.52;24.50;100378.34;5548722;32;33732;-62
2023/07/15 12:26:14;;;;;;;3.72;2.20;;;;;;;47.00;22.20;100372.81;5548654;32;33804;-62
2023/07/15 12:29:18;;;;;;;7.12;2.45;;;;;;;43.12;25.64;100368.87;5547633;32;34463;-63
2023/07/15 12:32:20;;;;;;;5.45;2.40;;;;;;;40.65;28.58;100361.59;5548621;32;33869;-62
2023/07/15 12:35:24;;;;;;;4.00;2.00;;;;;;;43.66;24.93;100365.25;5548574;32;33626;-63
2023/07/15 12:38:27;;;;;;;6.65;2.12;;;;;;;43.57;25.00;100368.41;5534809;32;33595;-67
2023/07/15 12:41:30;;;;;;;8.27;2.37;;;;;;;44.16;24.02;100364.25;5548426;32;33617;-64
2023/07/15 12:44:32;;;;;;;3.12;2.15;;;;;;;42.95;25.22;100355.53;5548427;32;33789;-62
2023/07/15 12:47:36;;;;;;;3.20;2.00;;;;;;;46.01;22.62;100358.59;5535146;32;33805;-63
2023/07/15 12:50:40;;;;;;;4.50;2.20;;;;;;;43.64;24.00;100354.44;5548354;32;33797;-63
2023/07/15 12:53:44;;;;;;;6.57;3.05;;;;;;;40.90;27.50;100356.47;5548384;32;33660;-63
2023/07/15 12:56:46;;;;;;;3.67;2.12;;;;;;;44.40;24.19;100353.53;5548275;32;33817;-63
2023/07/15 12:59:50;;;;;;;2.50;2.00;;;;;;;45.84;22.86;100346.28;5548232;32;32474;-63
2023/07/15 13:02:52;;;;;;;5.20;2.05;;;;;;;45.65;22.63;100346.72;5548206;32;33942;-63
2023/07/15 13:05:56;;;;;;;4.35;2.28;;;;;;;45.82;22.05;100338.25;5548023;32;33859;-63
2023/07/15 13:08:58;;;;;;;4.25;1.98;;;;;;;44.72;23.54;100340.44;5531085;32;34124;-63
2023/07/15 13:12:02;;;;;;;5.68;2.00;;;;;;;46.00;22.81;100334.56;5534361;32;33832;-63
2023/07/15 13:15:05;;;;;;;5.95;2.15;;;;;;;44.85;23.16;100335.22;5548055;32;33874;-63
2023/07/15 13:18:08;;;;;;;5.22;2.42;;;;;;;45.73;22.60;100326.66;5548034;32;33872;-64
2023/07/15 13:21:11;;;;;;;5.00;2.20;;;;;;;45.49;22.29;100338.75;5548216;32;33795;-64
2023/07/15 13:24:14;;;;;;;6.05;2.30;;;;;;;45.89;22.21;100323.41;5548110;32;33975;-62
2023/07/15 13:27:18;;;;;;;4.07;2.40;;;;;;;46.22;21.90;100327.66;5547960;32;34416;-63
2023/07/15 13:30:21;;;;;;;3.47;2.40;;;;;;;45.73;22.03;100328.66;5548361;32;33623;-63
2023/07/15 13:33:24;;;;;;;3.33;2.10;;;;;;;46.10;21.48;100320.47;5547954;32;35427;-63
2023/07/15 13:36:27;;;;;;;3.83;2.60;;;;;;;46.18;21.19;100313.66;5548022;32;33916;-63
2023/07/15 13:39:37;;;;;;;7.57;2.50;;;;;;;46.68;21.13;100313.28;5546745;32;34549;-64
2023/07/15 13:42:40;;;;;;;6.78;2.75;;;;;;;47.41;20.32;100311.00;5547564;32;33740;-63
2023/07/15 13:45:43;;;;;;;5.62;2.83;;;;;;;46.86;21.22;100311.13;5545382;32;33984;-63
2023/07/15 13:48:46;;;;;;;5.00;2.90;;;;;;;45.79;22.53;100305.44;5547886;32;33452;-65
2023/07/15 13:51:52;;;;;;;6.07;2.92;;;;;;;45.56;22.26;100298.72;5547995;32;33821;-63
2023/07/15 13:54:55;;;;;;;4.20;2.87;;;;;;;46.16;22.03;100298.44;5547996;32;34563;-63
2023/07/15 13:57:58;;;;;;;9.10;3.15;;;;;;;45.53;22.36;100293.91;5547825;32;33582;-63
2023/07/15 14:01:02;;;;;;;6.57;3.05;;;;;;;47.02;21.59;100307.78;5547656;32;33947;-62
2023/07/15 14:04:05;;;;;;;5.90;3.25;;;;;;;45.03;22.42;100301.66;5533863;32;33742;-63
2023/07/15 14:07:08;;;;;;;8.50;2.97;;;;;;;45.48;22.04;100297.94;5547655;32;33896;-63
2023/07/15 14:10:13;;;;;;;3.80;2.80;;;;;;;45.47;22.30;100298.31;5524686;32;34043;-63
2023/07/15 14:13:16;;;;;;;4.10;2.80;;;;;;;45.61;22.13;100289.88;5534184;32;33774;-63